Time;durP1;ratioP1;P1;durP2;ratioP2;P2;SDS_P1;SDS_P2;PMS_P1;PMS_P2;Temp;Humidity;BMP_temperature;BMP_pressure;BME280_temperature;BME280_humidity;BME280_pressure;Samples;Min_cycle;Max_cycle;Signal;HPM_P1;HPM_P2
2023/09/09 00:02:23;;;;;;;29.00;14.73;;;;;;;23.82;50.02;101365.56;4934944;28;20053;-79
2023/09/09 00:04:54;;;;;;;24.90;14.02;;;;;;;23.92;50.05;101381.44;4925259;28;20049;-80
2023/09/09 00:07:21;;;;;;;19.08;13.73;;;;;;;23.84;50.51;101384.34;4930482;28;20050;-80
2023/09/09 00:09:49;;;;;;;23.90;15.18;;;;;;;23.70;50.65;101360.94;4916206;28;20470;-79
2023/09/09 00:12:16;;;;;;;22.23;13.75;;;;;;;23.75;50.67;101370.16;4913512;28;20514;-79
2023/09/09 00:14:44;;;;;;;25.95;14.50;;;;;;;23.94;50.76;101421.94;4923335;28;20138;-79
2023/09/09 00:17:10;;;;;;;21.88;14.07;;;;;;;23.96;50.77;101415.25;4916152;28;20053;-77
2023/09/09 00:19:37;;;;;;;20.58;14.00;;;;;;;23.86;50.70;101409.38;4901216;28;20050;-79
2023/09/09 00:22:04;;;;;;;22.67;13.73;;;;;;;23.65;50.91;101380.50;4918399;28;20055;-77
2023/09/09 00:24:31;;;;;;;22.08;14.57;;;;;;;23.48;50.93;101377.34;4908824;28;20047;-81
2023/09/09 00:27:00;;;;;;;23.42;14.75;;;;;;;23.68;51.06;101415.34;4918486;28;20506;-81
2023/09/09 00:29:29;;;;;;;19.05;14.55;;;;;;;23.55;51.21;101394.44;4912889;28;20553;-80
2023/09/09 00:31:56;;;;;;;21.13;15.52;;;;;;;23.64;51.20;101423.06;4912185;28;20438;-82
2023/09/09 00:34:23;;;;;;;28.13;15.23;;;;;;;23.59;51.53;101420.13;4905155;28;20053;-78
2023/09/09 00:36:52;;;;;;;22.20;14.32;;;;;;;23.47;51.73;101400.03;4932583;28;20050;-80
2023/09/09 00:39:19;;;;;;;23.25;15.13;;;;;;;23.43;51.94;101410.44;4911264;28;20066;-81
2023/09/09 00:41:47;;;;;;;36.70;16.23;;;;;;;23.21;51.61;101369.09;4937486;28;20098;-81
2023/09/09 00:44:14;;;;;;;18.90;14.27;;;;;;;23.45;51.59;101423.81;4919894;28;20057;-79
2023/09/09 00:46:44;;;;;;;26.30;15.05;;;;;;;23.44;52.22;101422.13;4914203;28;20493;-82
2023/09/09 00:49:11;;;;;;;23.17;15.00;;;;;;;22.99;52.10;101364.81;4907957;28;20481;-81
2023/09/09 00:51:39;;;;;;;18.00;14.20;;;;;;;23.07;52.10;101389.03;4902889;28;20042;-80
2023/09/09 00:54:06;;;;;;;29.40;16.70;;;;;;;23.20;51.97;101408.03;4929487;28;20069;-81
2023/09/09 00:56:35;;;;;;;42.63;24.38;;;;;;;23.34;52.02;101427.09;4935077;28;20142;-80
2023/09/09 00:59:04;;;;;;;49.78;26.80;;;;;;;23.40;51.62;101421.69;4916139;28;20142;-81
2023/09/09 01:01:34;;;;;;;50.50;26.80;;;;;;;23.46;51.45;101430.88;4929267;28;20110;-81
2023/09/09 01:04:07;;;;;;;53.47;29.90;;;;;;;23.50;51.84;101432.16;4950289;28;20058;-80
2023/09/09 01:06:35;;;;;;;37.40;21.90;;;;;;;23.48;51.96;101431.53;4907052;28;20176;-81
2023/09/09 01:09:06;;;;;;;35.63;23.67;;;;;;;23.55;51.56;101429.69;4901260;28;20059;-81
2023/09/09 01:11:33;;;;;;;39.35;22.20;;;;;;;23.53;50.98;101426.34;4908204;28;20059;-79
2023/09/09 01:14:02;;;;;;;34.20;20.48;;;;;;;23.50;51.31;101421.31;4903170;28;20078;-79
2023/09/09 01:16:30;;;;;;;30.08;20.08;;;;;;;23.55;51.74;101429.69;4915434;28;20142;-78
2023/09/09 01:18:57;;;;;;;28.70;19.15;;;;;;;23.45;51.34;101412.97;4918135;28;20058;-79
2023/09/09 01:21:28;;;;;;;26.95;17.40;;;;;;;23.55;51.36;101416.13;4901138;28;20051;-80
2023/09/09 01:23:55;;;;;;;24.67;15.50;;;;;;;23.42;51.42;101397.09;4936089;28;20051;-79
2023/09/09 01:26:21;;;;;;;32.25;16.40;;;;;;;23.14;50.87;101341.16;4902613;28;20098;-79
2023/09/09 01:28:48;;;;;;;23.20;14.95;;;;;;;23.65;50.81;101424.72;4919971;28;20677;-80
2023/09/09 01:31:18;;;;;;;28.10;15.75;;;;;;;23.44;50.83;101400.44;4912312;28;20055;-79
2023/09/09 01:33:45;;;;;;;22.90;15.50;;;;;;;23.31;51.29;101363.31;4914591;28;20310;-78
2023/09/09 01:36:14;;;;;;;19.20;13.75;;;;;;;23.54;50.53;101402.78;4897115;28;20106;-80
2023/09/09 01:38:40;;;;;;;31.33;13.80;;;;;;;23.56;50.49;101404.25;4907421;28;20109;-81
2023/09/09 01:41:07;;;;;;;28.33;14.73;;;;;;;23.64;50.83;101431.19;4911227;28;20051;-78
2023/09/09 01:43:34;;;;;;;26.70;15.50;;;;;;;23.66;50.39;101426.38;4900631;28;20063;-81
2023/09/09 01:46:03;;;;;;;21.65;15.32;;;;;;;23.67;51.46;101427.22;4901689;28;20312;-79
2023/09/09 01:48:30;;;;;;;21.02;14.43;;;;;;;23.65;50.94;101424.72;4894276;28;20058;-81
2023/09/09 01:50:58;;;;;;;21.08;16.23;;;;;;;23.62;51.23;101433.25;4915136;28;20265;-80
2023/09/09 01:53:25;;;;;;;22.50;14.45;;;;;;;23.55;51.00;101423.44;4894406;28;20054;-80
2023/09/09 01:55:57;;;;;;;20.25;15.23;;;;;;;23.46;51.12;101414.63;4918653;28;20413;-82
2023/09/09 01:58:25;;;;;;;22.48;14.40;;;;;;;23.45;51.07;101416.50;4929876;28;20054;-79
2023/09/09 02:00:51;;;;;;;23.70;14.32;;;;;;;23.45;51.19;101421.09;4916325;28;20159;-82
2023/09/09 02:03:19;;;;;;;19.63;14.35;;;;;;;23.25;51.07;101402.88;4905792;28;20133;-80
2023/09/09 02:05:46;;;;;;;20.70;14.60;;;;;;;23.16;51.32;101387.81;4903847;28;20392;-78
2023/09/09 02:08:13;;;;;;;23.13;14.88;;;;;;;23.14;51.29;101380.94;4914791;29;20058;-80
2023/09/09 02:10:41;;;;;;;19.05;14.70;;;;;;;23.06;51.19;101370.25;4908839;29;20047;-80
2023/09/09 02:13:13;;;;;;;20.58;14.52;;;;;;;23.18;51.95;101387.59;4903945;28;20514;-80
2023/09/09 02:15:46;;;;;;;24.58;15.43;;;;;;;23.10;51.31;101382.38;4912833;28;20634;-79
2023/09/09 02:18:13;;;;;;;21.52;14.80;;;;;;;23.19;51.42;101408.25;4900220;28;20050;-80
2023/09/09 02:20:40;;;;;;;23.60;15.10;;;;;;;23.03;52.21;101376.91;4903289;28;20145;-80
2023/09/09 02:23:10;;;;;;;23.17;14.93;;;;;;;23.04;52.71;101375.88;4908434;28;20614;-78
2023/09/09 02:25:37;;;;;;;21.50;14.52;;;;;;;23.22;51.97;101403.25;4903553;28;20844;-81
2023/09/09 02:28:04;;;;;;;24.02;14.40;;;;;;;22.55;51.17;101288.34;4899989;28;20399;-80
2023/09/09 02:30:31;;;;;;;23.35;13.57;;;;;;;23.12;51.39;101386.53;4897466;28;20051;-80
2023/09/09 02:33:01;;;;;;;17.50;14.18;;;;;;;23.14;51.33;101394.47;4896123;28;20470;-82
2023/09/09 02:35:28;;;;;;;18.83;14.52;;;;;;;23.14;51.45;101399.91;4893075;28;20047;-80
2023/09/09 02:37:59;;;;;;;27.35;14.55;;;;;;;23.26;51.40;101419.97;4906517;28;20483;-80
2023/09/09 02:40:28;;;;;;;21.83;14.45;;;;;;;23.11;51.60;101389.44;4905385;28;20058;-80
2023/09/09 02:42:55;;;;;;;21.50;15.52;;;;;;;23.22;52.10;101415.97;4910059;28;20370;-81
2023/09/09 02:45:26;;;;;;;21.67;14.80;;;;;;;23.14;50.95;101397.19;4881166;28;20087;-80
2023/09/09 02:47:53;;;;;;;21.85;14.60;;;;;;;22.93;51.26;101373.69;4903257;28;20051;-80
2023/09/09 02:50:23;;;;;;;20.63;15.27;;;;;;;23.11;51.45;101411.97;4882163;28;20051;-81
2023/09/09 02:52:50;;;;;;;23.42;14.00;;;;;;;23.07;51.24;101405.28;4901654;28;20051;-79
2023/09/09 02:55:23;;;;;;;21.15;14.55;;;;;;;23.09;51.61;101414.03;4901389;29;20051;-80
2023/09/09 02:57:53;;;;;;;20.60;14.68;;;;;;;23.11;51.27;101417.38;4902527;29;20095;-79
2023/09/09 03:00:21;;;;;;;21.17;15.25;;;;;;;22.95;51.51;101387.88;4882162;29;20058;-81
2023/09/09 03:02:52;;;;;;;20.42;15.10;;;;;;;22.82;51.35;101365.09;4920546;28;20154;-79
2023/09/09 03:05:21;;;;;;;24.95;14.35;;;;;;;23.09;51.63;101424.88;4909964;28;20506;-78
2023/09/09 03:07:49;;;;;;;20.33;14.20;;;;;;;23.04;51.43;101406.50;4900978;28;20082;-80
2023/09/09 03:10:16;;;;;;;21.13;14.95;;;;;;;22.90;51.41;101395.75;4907788;28;20448;-81
2023/09/09 03:12:43;;;;;;;21.70;15.00;;;;;;;22.99;51.52;101418.97;4889571;28;20092;-79
2023/09/09 03:15:10;;;;;;;18.30;13.88;;;;;;;22.98;51.58;101418.13;4901743;28;20578;-81
2023/09/09 03:17:36;;;;;;;18.95;14.13;;;;;;;22.96;51.80;101405.78;4899617;28;20334;-80
2023/09/09 03:20:05;;;;;;;23.63;14.98;;;;;;;22.66;51.70;101372.69;4913373;28;20085;-79
2023/09/09 03:22:32;;;;;;;21.00;14.60;;;;;;;22.49;51.57;101345.94;4908718;28;20689;-78
2023/09/09 03:24:59;;;;;;;22.45;15.13;;;;;;;22.43;51.90;101344.03;4909495;28;20051;-80
2023/09/09 03:27:26;;;;;;;21.48;14.23;;;;;;;22.86;51.83;101408.00;4895065;28;20184;-79
2023/09/09 03:29:58;;;;;;;18.55;14.85;;;;;;;22.84;52.20;101416.31;4892778;28;20047;-80
2023/09/09 03:32:25;;;;;;;19.42;14.38;;;;;;;22.83;52.72;101391.13;4915682;28;20046;-82
2023/09/09 03:34:53;;;;;;;21.38;14.48;;;;;;;22.45;52.19;101341.09;4902996;28;20308;-80
2023/09/09 03:37:21;;;;;;;24.27;15.30;;;;;;;22.82;51.58;101403.00;4914629;28;20047;-78
2023/09/09 03:39:51;;;;;;;27.63;15.50;;;;;;;22.89;51.94;101422.00;4904920;28;20066;-80
2023/09/09 03:42:18;;;;;;;24.48;15.95;;;;;;;22.85;51.79;101422.59;4917213;28;20039;-80
2023/09/09 03:44:45;;;;;;;20.38;14.90;;;;;;;22.48;51.86;101367.78;4886805;28;20478;-80
2023/09/09 03:47:12;;;;;;;28.17;15.32;;;;;;;22.77;51.99;101429.00;4901554;28;20477;-81
2023/09/09 03:49:39;;;;;;;25.10;15.10;;;;;;;22.70;52.27;101428.94;4890755;28;20484;-80
2023/09/09 03:52:09;;;;;;;19.50;15.23;;;;;;;22.59;52.41;101418.66;4905086;28;20053;-81
2023/09/09 03:54:38;;;;;;;20.45;14.60;;;;;;;22.66;52.24;101429.53;4913554;28;20458;-81
2023/09/09 03:57:05;;;;;;;19.27;14.90;;;;;;;22.69;52.69;101429.13;4925438;28;20054;-81
2023/09/09 03:59:33;;;;;;;19.48;15.10;;;;;;;22.44;52.45;101388.16;4911081;28;20066;-79
2023/09/09 04:01:59;;;;;;;20.33;15.18;;;;;;;22.57;52.65;101399.06;4921610;28;20068;-78
2023/09/09 04:04:30;;;;;;;26.10;14.88;;;;;;;22.64;52.21;101421.59;4928515;28;20054;-80
2023/09/09 04:07:00;;;;;;;20.60;14.65;;;;;;;22.61;52.51;101424.69;4906902;28;20062;-80
2023/09/09 04:09:30;;;;;;;22.17;15.52;;;;;;;22.46;52.26;101407.72;4908860;28;20053;-80
2023/09/09 04:11:58;;;;;;;19.98;14.90;;;;;;;21.91;52.58;101321.69;4907667;28;20130;-80
2023/09/09 04:14:25;;;;;;;21.50;15.77;;;;;;;22.47;52.57;101406.69;4911323;28;20742;-82
2023/09/09 04:16:52;;;;;;;22.20;15.13;;;;;;;22.48;52.69;101416.50;4904250;28;20309;-81
2023/09/09 04:19:19;;;;;;;21.73;16.52;;;;;;;22.33;52.85;101390.34;4907484;28;20051;-79
2023/09/09 04:21:51;;;;;;;21.95;16.20;;;;;;;22.48;52.57;101413.78;4910026;28;20475;-80
2023/09/09 04:24:21;;;;;;;21.40;15.15;;;;;;;22.35;52.76;101396.38;4900334;28;20067;-79
2023/09/09 04:26:48;;;;;;;22.45;16.13;;;;;;;22.32;53.20;101382.41;4919886;28;20558;-82
2023/09/09 04:29:15;;;;;;;23.35;15.18;;;;;;;22.48;52.83;101408.38;4900618;28;20467;-80
2023/09/09 04:31:43;;;;;;;30.75;15.13;;;;;;;22.14;52.73;101345.00;4920936;28;20070;-80
2023/09/09 04:34:12;;;;;;;20.92;15.00;;;;;;;22.65;52.42;101431.41;4929303;28;20065;-80
2023/09/09 04:36:41;;;;;;;26.05;16.55;;;;;;;22.57;52.14;101415.28;4905826;28;20050;-80
2023/09/09 04:39:08;;;;;;;32.45;15.95;;;;;;;22.47;52.53;101393.16;4906093;28;20066;-80
2023/09/09 04:41:35;;;;;;;28.95;15.95;;;;;;;22.57;52.26;101418.84;4898034;28;20051;-80
2023/09/09 04:44:02;;;;;;;25.33;15.18;;;;;;;22.65;52.48;101433.25;4898699;28;20290;-81
2023/09/09 04:46:30;;;;;;;24.42;16.20;;;;;;;22.61;52.39;101430.13;4903949;28;20351;-81
2023/09/09 04:48:57;;;;;;;26.20;17.77;;;;;;;22.59;52.29;101427.59;4896815;28;20950;-80
2023/09/09 04:51:32;;;;;;;22.35;17.02;;;;;;;22.57;52.33;101418.00;4910583;28;20349;-80
2023/09/09 04:54:00;;;;;;;21.48;15.07;;;;;;;22.02;52.85;101330.34;4904891;28;20125;-81
2023/09/09 04:56:30;;;;;;;18.52;14.82;;;;;;;22.52;53.37;101412.34;4926570;28;20055;-81
2023/09/09 04:58:57;;;;;;;20.92;14.70;;;;;;;22.30;54.34;101371.78;4914315;28;20055;-81
2023/09/09 05:01:24;;;;;;;23.52;14.50;;;;;;;22.53;52.67;101414.03;4923855;28;20051;-80
2023/09/09 05:03:51;;;;;;;20.58;16.13;;;;;;;22.58;52.88;101428.63;4929296;28;20497;-80
2023/09/09 05:06:17;;;;;;;24.73;15.90;;;;;;;22.49;52.92;101423.56;4921517;28;20057;-78
2023/09/09 05:08:46;;;;;;;24.85;16.55;;;;;;;22.61;52.95;101428.25;4907775;28;20063;-79
2023/09/09 05:11:13;;;;;;;22.23;15.60;;;;;;;22.37;52.51;101391.63;4935430;28;20452;-80
2023/09/09 05:13:42;;;;;;;28.92;16.55;;;;;;;22.16;52.59;101369.97;4916081;28;20086;-80
2023/09/09 05:16:09;;;;;;;27.45;17.10;;;;;;;22.44;52.49;101420.59;4940247;28;20051;-80
2023/09/09 05:18:36;;;;;;;30.58;16.95;;;;;;;22.51;52.86;101424.22;4896143;28;20074;-80
2023/09/09 05:21:03;;;;;;;26.02;16.08;;;;;;;22.36;52.57;101411.59;4915929;28;20157;-80
2023/09/09 05:23:38;;;;;;;26.23;16.88;;;;;;;22.32;52.55;101404.88;4918105;28;20626;-80
2023/09/09 05:26:15;;;;;;;27.73;16.35;;;;;;;22.49;52.82;101428.97;4899654;28;20224;-80
2023/09/09 05:28:44;;;;;;;26.40;15.82;;;;;;;22.40;52.69;101414.72;4914264;28;20582;-80
2023/09/09 05:31:12;;;;;;;22.33;16.75;;;;;;;22.64;51.96;101437.84;4914902;28;20046;-77
2023/09/09 05:33:39;;;;;;;27.98;18.23;;;;;;;22.38;52.16;101389.78;4907470;29;20151;-80
2023/09/09 05:36:07;;;;;;;30.40;18.85;;;;;;;22.68;52.22;101435.59;4919788;28;20471;-79
2023/09/09 05:38:46;;;;;;;24.30;16.30;;;;;;;22.50;53.51;101393.63;4899675;28;20129;-80
2023/09/09 05:41:23;;;;;;;28.88;16.60;;;;;;;22.64;52.48;101427.00;4874330;28;20290;-80
2023/09/09 05:43:50;;;;;;;28.17;17.45;;;;;;;22.72;52.22;101435.00;4895398;28;20537;-81
2023/09/09 05:46:18;;;;;;;23.80;17.17;;;;;;;22.56;52.27;101410.94;4926039;28;20342;-80
2023/09/09 05:48:45;;;;;;;25.63;17.42;;;;;;;22.37;52.23;101378.09;4893476;28;20051;-79
2023/09/09 05:51:22;;;;;;;23.55;16.23;;;;;;;22.64;52.37;101424.31;4923996;28;20053;-81
2023/09/09 05:54:00;;;;;;;26.60;17.02;;;;;;;22.84;52.11;101451.50;4906477;28;20497;-80
2023/09/09 05:56:29;;;;;;;24.58;16.85;;;;;;;22.68;52.19;101422.88;4910339;28;20076;-81
2023/09/09 05:58:55;;;;;;;24.48;16.05;;;;;;;22.78;52.14;101436.91;4916234;28;20051;-78
2023/09/09 06:01:22;;;;;;;27.98;17.02;;;;;;;22.81;52.37;101450.03;4913848;28;20046;-81
2023/09/09 06:03:57;;;;;;;21.60;17.08;;;;;;;22.89;51.94;101456.34;4891495;28;20062;-79
2023/09/09 06:06:24;;;;;;;28.85;16.83;;;;;;;22.88;51.70;101451.97;4921525;28;20483;-81
2023/09/09 06:08:51;;;;;;;22.98;16.02;;;;;;;22.78;52.15;101447.72;4891443;29;20078;-80
2023/09/09 06:11:18;;;;;;;20.70;15.85;;;;;;;22.69;52.29;101424.53;4861922;29;20313;-80
2023/09/09 06:13:51;;;;;;;25.30;16.88;;;;;;;22.95;52.40;101461.81;4890363;28;20188;-81
2023/09/09 06:16:18;;;;;;;28.10;17.55;;;;;;;23.05;52.12;101472.31;4896649;28;20217;-78
2023/09/09 06:18:50;;;;;;;26.08;16.83;;;;;;;23.06;52.16;101467.75;4865958;29;20054;-80
2023/09/09 06:21:17;;;;;;;28.52;16.60;;;;;;;22.99;52.25;101446.88;4886666;28;20047;-78
2023/09/09 06:23:44;;;;;;;27.08;17.27;;;;;;;23.13;51.97;101464.06;4869577;29;20058;-79
2023/09/09 06:26:11;;;;;;;23.98;15.23;;;;;;;23.14;52.75;101471.16;4891933;28;20054;-81
2023/09/09 06:28:37;;;;;;;22.45;17.05;;;;;;;22.83;51.80;101409.25;4884425;28;20436;-78
2023/09/09 06:31:05;;;;;;;28.38;17.02;;;;;;;23.20;51.18;101445.97;4891985;28;20058;-78
2023/09/09 06:33:31;;;;;;;26.13;16.83;;;;;;;23.23;51.44;101455.59;4888729;28;20140;-77
2023/09/09 06:35:58;;;;;;;29.63;18.10;;;;;;;23.37;51.19;101470.84;4894292;29;20543;-79
2023/09/09 06:38:25;;;;;;;26.08;16.83;;;;;;;23.37;51.88;101478.97;4890358;28;20099;-80
2023/09/09 06:40:52;;;;;;;32.10;16.48;;;;;;;23.42;51.51;101478.38;4880355;29;20540;-78
2023/09/09 06:43:20;;;;;;;31.35;16.73;;;;;;;23.50;51.28;101483.66;4880906;29;20055;-79
2023/09/09 06:45:48;;;;;;;25.63;16.80;;;;;;;23.26;51.47;101436.22;4908530;28;20086;-79
2023/09/09 06:48:18;;;;;;;23.48;14.77;;;;;;;23.56;51.54;101472.00;4906941;29;20121;-81
2023/09/09 06:50:47;;;;;;;;;;;;;;;23.53;51.79;101477.81;4920487;28;20065;-80
2023/09/09 06:53:16;;;;;;;27.27;18.80;;;;;;;23.65;50.67;101473.50;4906394;29;19926;-79
2023/09/09 06:55:46;;;;;;;27.42;17.38;;;;;;;23.72;50.99;101486.25;4904087;28;20074;-80
2023/09/09 06:58:19;;;;;;;22.52;17.15;;;;;;;23.27;50.50;101421.63;4919056;28;20070;-80
2023/09/09 07:00:53;;;;;;;24.38;17.20;;;;;;;23.71;51.16;101465.59;4908106;28;20511;-81
2023/09/09 07:03:20;;;;;;;29.13;18.13;;;;;;;23.97;50.17;101497.44;4916878;28;20150;-81
2023/09/09 07:05:48;;;;;;;23.05;16.23;;;;;;;23.88;51.15;101484.06;4921413;28;20144;-81
2023/09/09 07:08:18;;;;;;;24.13;16.70;;;;;;;23.77;50.82;101479.22;4907065;28;20050;-80
2023/09/09 07:10:50;;;;;;;29.67;17.20;;;;;;;24.00;50.85;101488.88;4915024;28;20100;-80
2023/09/09 07:13:19;;;;;;;19.92;14.00;;;;;;;24.01;51.07;101475.13;4905637;29;20556;-81
2023/09/09 07:15:46;;;;;;;27.27;18.08;;;;;;;24.19;49.43;101495.41;4921922;28;20051;-80
2023/09/09 07:18:14;;;;;;;21.30;15.15;;;;;;;23.71;50.73;101406.78;4890877;29;20347;-81
2023/09/09 07:20:42;;;;;;;22.08;15.93;;;;;;;24.24;50.26;101492.91;4918864;29;20059;-77
2023/09/09 07:23:15;;;;;;;25.02;15.82;;;;;;;24.38;50.21;101493.78;4911705;29;20409;-79
2023/09/09 07:25:47;;;;;;;20.15;15.25;;;;;;;24.32;50.11;101495.44;4914291;28;20063;-80
2023/09/09 07:28:14;;;;;;;31.33;16.42;;;;;;;24.20;49.76;101475.38;4909950;29;20570;-79
2023/09/09 07:30:48;;;;;;;23.02;16.30;;;;;;;24.37;49.62;101487.53;4890575;29;20049;-80
2023/09/09 07:33:15;;;;;;;23.98;16.42;;;;;;;24.02;49.64;101430.69;4918370;28;20187;-79
2023/09/09 07:35:47;;;;;;;24.60;16.02;;;;;;;24.47;50.50;101498.84;4916218;28;20503;-76
2023/09/09 07:38:15;;;;;;;17.55;14.50;;;;;;;24.53;49.49;101498.00;4910432;28;20592;-81
2023/09/09 07:40:42;;;;;;;27.52;15.80;;;;;;;24.15;49.51;101434.47;4906288;29;20055;-79
2023/09/09 07:43:09;;;;;;;22.40;15.38;;;;;;;24.56;49.77;101498.63;4917733;29;20051;-78
2023/09/09 07:45:50;;;;;;;21.98;16.17;;;;;;;24.62;49.26;101478.81;4893964;29;20117;-80
2023/09/09 07:48:18;;;;;;;24.40;16.17;;;;;;;24.66;49.04;101480.91;4891228;29;20507;-77
2023/09/09 07:50:53;;;;;;;22.48;16.08;;;;;;;24.57;49.18;101473.19;4885710;29;20574;-78
2023/09/09 07:53:21;;;;;;;28.20;15.18;;;;;;;24.21;49.29;101417.38;4896326;28;20388;-80
2023/09/09 07:55:49;;;;;;;19.10;16.05;;;;;;;24.50;49.91;101476.72;4889000;28;20153;-79
2023/09/09 07:58:17;;;;;;;24.25;16.42;;;;;;;24.55;50.09;101486.13;4871539;28;20115;-80
2023/09/09 08:00:46;;;;;;;28.40;17.38;;;;;;;24.49;50.08;101457.91;4910838;28;20410;-79
2023/09/09 08:03:15;;;;;;;21.52;15.90;;;;;;;24.52;50.50;101469.19;4893741;28;20082;-79
2023/09/09 08:05:43;;;;;;;20.95;14.52;;;;;;;24.64;51.37;101485.72;4909243;28;20066;-79
2023/09/09 08:08:10;;;;;;;25.70;15.25;;;;;;;24.43;51.17;101431.59;4912572;28;20055;-80
2023/09/09 08:10:37;;;;;;;25.63;16.15;;;;;;;24.74;50.57;101471.72;4856981;28;20719;-79
2023/09/09 08:13:04;;;;;;;25.98;14.63;;;;;;;24.80;51.38;101487.16;4874268;29;20167;-80
2023/09/09 08:15:31;;;;;;;24.58;15.88;;;;;;;24.85;50.76;101490.06;4907278;29;20146;-79
2023/09/09 08:18:01;;;;;;;21.67;16.20;;;;;;;24.77;50.93;101484.88;4907057;28;20073;-80
2023/09/09 08:20:30;;;;;;;27.42;17.00;;;;;;;24.61;51.12;101458.13;4909499;28;20626;-79
2023/09/09 08:22:57;;;;;;;19.80;12.95;;;;;;;24.88;51.58;101492.41;4882726;28;20631;-80
2023/09/09 08:25:25;;;;;;;19.00;15.02;;;;;;;24.88;51.80;101484.25;4877944;28;20447;-79
2023/09/09 08:27:53;;;;;;;23.13;14.05;;;;;;;25.07;51.78;101484.41;4885252;28;20579;-78
2023/09/09 08:30:20;;;;;;;24.67;14.38;;;;;;;25.10;51.62;101478.59;4897856;28;20234;-80
2023/09/09 08:32:46;;;;;;;20.23;14.43;;;;;;;25.25;51.36;101500.13;4901113;28;20099;-76
2023/09/09 08:35:13;;;;;;;25.05;16.58;;;;;;;25.32;50.35;101496.34;4886159;28;20051;-79
2023/09/09 08:37:41;;;;;;;29.30;16.48;;;;;;;25.29;50.35;101502.19;4918032;28;20047;-82
2023/09/09 08:40:08;;;;;;;25.27;15.70;;;;;;;25.40;50.45;101499.88;4904132;28;20051;-79
2023/09/09 08:42:42;;;;;;;24.65;17.52;;;;;;;24.86;50.38;101415.72;4895220;29;20499;-79
2023/09/09 08:45:29;;;;;;;19.20;14.05;;;;;;;25.01;51.46;101439.94;4902177;29;20051;-79
2023/09/09 08:47:58;;;;;;;25.15;15.07;;;;;;;25.41;51.27;101490.66;4914794;28;20043;-78
2023/09/09 08:50:29;;;;;;;28.73;15.63;;;;;;;25.57;50.43;101498.34;4890464;29;20321;-79
2023/09/09 08:53:01;;;;;;;18.67;14.05;;;;;;;25.50;50.17;101470.34;4903267;28;20051;-78
2023/09/09 08:55:31;;;;;;;24.75;16.38;;;;;;;25.64;50.27;101487.47;4889553;28;20742;-81
2023/09/09 08:58:00;;;;;;;20.17;13.77;;;;;;;25.70;50.31;101501.00;4908751;28;20386;-80
2023/09/09 09:00:34;;;;;;;21.38;13.85;;;;;;;25.57;50.24;101482.88;4886192;28;20051;-80
2023/09/09 09:03:02;;;;;;;23.48;14.45;;;;;;;25.55;49.18;101444.19;4903861;28;20475;-79
2023/09/09 09:05:33;;;;;;;19.83;13.02;;;;;;;25.89;49.64;101501.19;4907745;29;20047;-79
2023/09/09 09:08:01;;;;;;;;;;;;;;;25.87;50.14;101501.38;4875763;28;20051;-80
2023/09/09 09:10:29;;;;;;;16.63;13.20;;;;;;;25.83;50.06;101477.53;4863297;29;20698;-80
2023/09/09 09:13:00;;;;;;;18.33;14.10;;;;;;;26.00;48.24;101492.34;4878814;29;20059;-80
2023/09/09 09:15:32;;;;;;;18.02;13.10;;;;;;;25.70;48.41;101438.47;4906345;29;20066;-83
2023/09/09 09:18:00;;;;;;;18.10;14.18;;;;;;;25.94;48.42;101461.41;4867024;29;20265;-80
2023/09/09 09:20:31;;;;;;;25.08;14.93;;;;;;;26.24;47.59;101482.59;4896504;29;20066;-81
2023/09/09 09:23:04;;;;;;;15.55;12.27;;;;;;;26.28;47.81;101489.25;4912146;28;20047;-78
2023/09/09 09:25:45;;;;;;;18.30;13.52;;;;;;;26.23;48.19;101473.56;4910471;29;20043;-79
2023/09/09 09:28:21;;;;;;;24.48;14.65;;;;;;;26.45;48.06;101484.09;4902815;29;20153;-80
2023/09/09 09:30:49;;;;;;;16.90;12.48;;;;;;;26.55;47.63;101470.84;4881463;29;20059;-80
2023/09/09 09:33:23;;;;;;;22.48;13.70;;;;;;;26.71;47.02;101471.38;4890677;29;20287;-81
2023/09/09 09:35:50;;;;;;;17.73;12.60;;;;;;;26.90;46.97;101478.53;4890727;28;20537;-79
2023/09/09 09:38:18;;;;;;;21.17;14.18;;;;;;;26.97;46.77;101465.69;4859996;28;20058;-79
2023/09/09 09:40:45;;;;;;;18.08;12.18;;;;;;;26.53;46.29;101377.69;4874626;29;20066;-80
2023/09/09 09:43:19;;;;;;;18.85;13.27;;;;;;;27.11;45.15;101454.66;4922629;29;20403;-81
2023/09/09 09:45:47;;;;;;;16.75;12.88;;;;;;;27.39;45.44;101476.81;4904083;29;20570;-80
2023/09/09 09:48:27;;;;;;;19.77;13.10;;;;;;;27.32;46.63;101456.97;4880415;28;20104;-81
2023/09/09 09:50:54;;;;;;;18.67;12.73;;;;;;;27.38;44.78;101455.22;4911612;29;20146;-81
2023/09/09 09:53:22;;;;;;;19.58;12.48;;;;;;;27.71;43.91;101476.63;4921569;29;20059;-81
2023/09/09 09:55:50;;;;;;;19.35;12.18;;;;;;;27.72;43.61;101464.69;4910597;28;20387;-78
2023/09/09 09:58:21;;;;;;;17.73;12.32;;;;;;;27.86;45.79;101479.81;4896676;28;20063;-79
2023/09/09 10:00:51;;;;;;;24.35;12.93;;;;;;;27.83;44.43;101457.63;4917950;28;20518;-80
2023/09/09 10:03:25;;;;;;;16.38;11.40;;;;;;;27.82;44.28;101456.81;4914764;28;20256;-80
2023/09/09 10:05:57;;;;;;;14.48;12.95;;;;;;;27.89;45.16;101452.09;4890821;28;20074;-79
2023/09/09 10:08:36;;;;;;;16.33;12.82;;;;;;;27.83;43.52;101431.16;4906482;28;20353;-80
2023/09/09 10:11:07;;;;;;;17.52;12.30;;;;;;;28.06;44.36;101433.16;4893806;29;20062;-80
2023/09/09 10:13:39;;;;;;;;;;;;;;;28.29;42.06;101461.59;4891661;28;20140;-78
2023/09/09 10:16:12;;;;;;;21.05;12.32;;;;;;;28.03;42.26;101395.41;4895127;28;19926;-79
2023/09/09 10:18:41;;;;;;;14.73;11.93;;;;;;;28.47;43.65;101449.75;4919734;28;20051;-81
2023/09/09 10:21:09;;;;;;;19.92;13.00;;;;;;;28.52;43.21;101455.34;4915919;28;20502;-80
2023/09/09 10:23:38;;;;;;;20.67;13.15;;;;;;;28.61;43.87;101458.59;4921561;28;20055;-80
2023/09/09 10:26:07;;;;;;;13.75;11.32;;;;;;;28.47;42.89;101425.19;4919409;28;20053;-80
2023/09/09 10:28:36;;;;;;;14.35;11.50;;;;;;;28.69;43.85;101459.06;4896208;29;20368;-79
2023/09/09 10:31:05;;;;;;;16.13;12.18;;;;;;;28.80;41.86;101445.66;4885614;29;20087;-80
2023/09/09 10:33:32;;;;;;;20.23;13.40;;;;;;;28.76;42.06;101429.75;4904353;28;20122;-80
2023/09/09 10:36:00;;;;;;;19.10;12.65;;;;;;;28.97;41.15;101452.06;4917971;28;20130;-80
2023/09/09 10:38:30;;;;;;;17.63;12.68;;;;;;;28.98;41.88;101431.84;4930648;28;20048;-80
2023/09/09 10:40:57;;;;;;;16.65;11.50;;;;;;;29.04;42.20;101443.75;4905571;29;20142;-81
2023/09/09 10:43:24;;;;;;;15.63;11.82;;;;;;;29.12;43.04;101435.19;4906319;28;20057;-80
2023/09/09 10:45:54;;;;;;;16.50;12.32;;;;;;;29.03;43.02;101418.31;4904714;28;20043;-80
2023/09/09 10:48:23;;;;;;;19.95;12.88;;;;;;;29.05;41.64;101415.31;4912668;28;20546;-78
2023/09/09 10:50:52;;;;;;;17.05;11.02;;;;;;;28.85;41.97;101378.28;4922463;28;20090;-80
2023/09/09 10:53:22;;;;;;;;;;;;;;;29.18;43.39;101426.88;4923530;28;20043;-78
2023/09/09 10:55:53;;;;;;;14.93;11.48;;;;;;;29.24;42.37;101435.19;4914333;28;19952;-78
2023/09/09 10:58:30;;;;;;;20.55;12.30;;;;;;;29.27;43.17;101421.03;4916285;28;20063;-80
2023/09/09 11:01:01;;;;;;;20.98;12.48;;;;;;;29.23;42.16;101412.50;4907083;29;20059;-81
2023/09/09 11:03:36;;;;;;;17.10;12.57;;;;;;;28.86;42.98;101355.38;4905035;28;20367;-80
2023/09/09 11:06:18;;;;;;;18.70;12.15;;;;;;;29.35;40.82;101415.19;4948010;28;20486;-81
2023/09/09 11:08:46;;;;;;;20.05;12.25;;;;;;;29.66;39.80;101415.78;4908282;28;20516;-79
2023/09/09 11:11:18;;;;;;;15.00;11.27;;;;;;;29.73;39.98;101411.84;4919226;28;20124;-82
2023/09/09 11:14:05;;;;;;;21.92;11.65;;;;;;;29.87;40.46;101404.19;4922618;28;20051;-79
2023/09/09 11:16:39;;;;;;;20.00;12.23;;;;;;;29.86;39.76;101410.75;4912568;28;20046;-80
2023/09/09 11:19:07;;;;;;;16.67;11.32;;;;;;;29.84;38.69;101390.19;4922735;28;20081;-80